Time;durP1;ratioP1;P1;durP2;ratioP2;P2;SDS_P1;SDS_P2;PMS_P1;PMS_P2;Temp;Humidity;BMP_temperature;BMP_pressure;BME280_temperature;BME280_humidity;BME280_pressure;Samples;Min_cycle;Max_cycle;Signal;HPM_P1;HPM_P2
2023/04/28 00:00:08;;;;;;;7.45;4.70;;;;;;;8.32;63.65;101319.78;1036174;28;20312;-82
2023/04/28 00:00:40;;;;;;;10.15;4.30;;;;;;;8.26;63.51;101323.22;1035462;28;20400;-82
2023/04/28 00:01:11;;;;;;;4.43;4.03;;;;;;;8.32;63.14;101317.13;1040563;28;20300;-82
2023/04/28 00:01:43;;;;;;;8.05;3.95;;;;;;;8.31;63.51;101315.50;1044391;28;20307;-82
2023/04/28 00:02:15;;;;;;;8.77;4.13;;;;;;;8.25;64.27;101320.75;1046772;28;20554;-82
2023/04/28 00:02:47;;;;;;;7.47;3.97;;;;;;;8.23;63.37;101312.97;1045777;28;20690;-82
2023/04/28 00:03:19;;;;;;;4.15;3.75;;;;;;;8.26;62.79;101306.47;1047214;28;20305;-82
2023/04/28 00:03:52;;;;;;;9.90;4.70;;;;;;;8.23;62.80;101301.53;1046502;28;20341;-82
2023/04/28 00:04:24;;;;;;;5.78;3.88;;;;;;;8.24;63.07;101303.19;1037254;28;20315;-82
2023/04/28 00:04:56;;;;;;;4.90;3.50;;;;;;;8.23;63.13;101297.06;1032503;28;20341;-82
2023/04/28 00:05:28;;;;;;;9.93;3.83;;;;;;;8.26;63.14;101301.16;1036266;28;20383;-81
2023/04/28 00:06:00;;;;;;;10.63;4.60;;;;;;;8.26;62.82;101301.16;1041277;28;20353;-82
2023/04/28 00:06:31;;;;;;;5.80;4.00;;;;;;;8.28;62.74;101305.25;1036015;28;20340;-81
2023/04/28 00:07:03;;;;;;;4.18;3.50;;;;;;;8.27;63.35;101298.31;1038507;28;20312;-81
2023/04/28 00:07:34;;;;;;;5.43;4.05;;;;;;;8.27;63.48;101297.50;1039824;28;20395;-81
2023/04/28 00:08:06;;;;;;;10.73;4.07;;;;;;;8.25;62.87;101305.66;1043426;28;20785;-81
2023/04/28 00:08:38;;;;;;;8.02;4.65;;;;;;;8.23;63.06;101302.34;1045406;28;20306;-81
2023/04/28 00:09:10;;;;;;;5.38;3.80;;;;;;;8.21;63.55;101299.03;1041419;28;20298;-82
2023/04/28 00:09:42;;;;;;;4.22;3.70;;;;;;;8.17;64.29;101296.97;1043553;28;20295;-82
2023/04/28 00:10:14;;;;;;;8.35;3.35;;;;;;;8.15;63.76;101294.50;1038132;28;20312;-82
2023/04/28 00:10:45;;;;;;;4.35;3.85;;;;;;;8.16;63.47;101296.13;1036005;28;20312;-82
2023/04/28 00:11:17;;;;;;;5.43;3.47;;;;;;;8.15;63.54;101293.69;1038420;28;20301;-81
2023/04/28 00:11:48;;;;;;;8.00;4.40;;;;;;;8.14;63.99;101295.50;1044521;28;20306;-82
2023/04/28 00:12:20;;;;;;;7.75;4.38;;;;;;;8.01;64.36;101296.22;1040988;28;20300;-82
2023/04/28 00:12:51;;;;;;;5.28;4.78;;;;;;;8.04;63.71;101293.19;1044749;28;20341;-82
2023/04/28 00:13:23;;;;;;;10.93;4.65;;;;;;;8.04;63.62;101292.34;1049817;28;20869;-81
2023/04/28 00:13:55;;;;;;;5.25;4.22;;;;;;;8.06;64.33;101295.63;1046356;28;20664;-81
2023/04/28 00:14:26;;;;;;;9.68;4.57;;;;;;;8.05;64.02;101300.13;1047038;28;20341;-82
2023/04/28 00:14:58;;;;;;;6.32;3.95;;;;;;;8.09;63.52;101289.94;1041587;28;20306;-82
2023/04/28 00:15:29;;;;;;;4.97;3.58;;;;;;;8.10;63.26;101288.94;1041951;28;20318;-81
2023/04/28 00:16:01;;;;;;;6.97;4.65;;;;;;;8.05;64.01;101291.34;1038438;28;20310;-81
2023/04/28 00:16:33;;;;;;;5.25;3.88;;;;;;;8.02;64.26;101294.38;1038197;28;20304;-81
2023/04/28 00:17:04;;;;;;;5.72;3.60;;;;;;;8.07;63.56;101286.66;1044222;28;20305;-81
2023/04/28 00:17:36;;;;;;;8.73;3.75;;;;;;;8.10;64.43;101286.28;1045323;28;20292;-81
2023/04/28 00:18:08;;;;;;;4.97;4.13;;;;;;;8.05;64.54;101288.69;1048323;28;20789;-81
2023/04/28 00:18:39;;;;;;;7.18;4.25;;;;;;;7.96;64.77;101284.53;1047890;28;20307;-82
2023/04/28 00:19:11;;;;;;;6.20;4.97;;;;;;;8.05;64.04;101278.06;1045423;28;20314;-81
2023/04/28 00:19:43;;;;;;;5.93;3.88;;;;;;;8.05;63.67;101278.06;1046071;28;20381;-81
2023/04/28 00:20:15;;;;;;;5.28;3.75;;;;;;;8.07;63.54;101270.75;1045069;28;20298;-81
2023/04/28 00:20:47;;;;;;;6.68;4.45;;;;;;;8.02;63.38;101279.28;1036796;28;20300;-81
2023/04/28 00:21:18;;;;;;;7.30;4.40;;;;;;;8.05;63.58;101275.44;1037546;28;20375;-81
2023/04/28 00:21:50;;;;;;;4.88;4.25;;;;;;;8.04;64.18;101276.44;1035690;28;20370;-82
2023/04/28 00:22:21;;;;;;;6.07;3.70;;;;;;;8.04;63.47;101271.13;1037637;28;20309;-82
2023/04/28 00:22:53;;;;;;;4.88;4.05;;;;;;;8.02;63.41;101278.47;1045628;28;20299;-81
2023/04/28 00:23:25;;;;;;;6.15;3.85;;;;;;;8.02;64.09;101273.16;1043395;28;20446;-82
2023/04/28 00:23:56;;;;;;;6.32;3.67;;;;;;;7.92;64.14;101277.94;1039385;28;20362;-82
2023/04/28 00:24:28;;;;;;;4.60;4.20;;;;;;;7.99;64.67;101273.53;1033017;28;20301;-82
2023/04/28 00:24:59;;;;;;;4.40;3.40;;;;;;;7.92;63.79;101281.41;1038555;28;20303;-82
2023/04/28 00:25:31;;;;;;;4.53;3.92;;;;;;;7.97;63.74;101272.91;1035906;28;20404;-81
2023/04/28 00:26:03;;;;;;;5.57;3.92;;;;;;;7.97;62.96;101263.13;1038258;28;20296;-81
2023/04/28 00:26:34;;;;;;;3.95;3.05;;;;;;;8.02;62.85;101262.53;1035923;28;20293;-81
2023/04/28 00:27:06;;;;;;;5.82;4.65;;;;;;;7.99;63.54;101270.88;1040078;28;20302;-81
2023/04/28 00:27:38;;;;;;;5.43;3.50;;;;;;;7.99;65.12;101269.06;1038944;28;20314;-81
2023/04/28 00:28:09;;;;;;;4.75;3.65;;;;;;;7.83;64.08;101268.44;1040136;28;20299;-82
2023/04/28 00:28:44;;;;;;;6.38;3.90;;;;;;;7.95;64.40;101265.13;1043289;28;20666;-81
2023/04/28 00:29:16;;;;;;;5.82;3.92;;;;;;;7.97;64.19;101270.25;1038432;28;20324;-81
2023/04/28 00:29:48;;;;;;;5.10;3.97;;;;;;;7.99;64.73;101273.53;1035789;28;20312;-81
2023/04/28 00:30:19;;;;;;;5.88;4.65;;;;;;;7.98;64.79;101274.53;1034025;28;20301;-81
2023/04/28 00:30:51;;;;;;;5.75;4.20;;;;;;;7.87;64.86;101270.53;1033740;28;20293;-82
2023/04/28 00:31:22;;;;;;;8.38;3.90;;;;;;;7.79;64.48;101270.66;1038817;28;20310;-81
2023/04/28 00:31:54;;;;;;;6.70;3.78;;;;;;;7.69;64.26;101270.16;1039980;28;20303;-81
2023/04/28 00:32:26;;;;;;;4.80;3.72;;;;;;;7.83;64.41;101265.81;1039614;28;20318;-81
2023/04/28 00:32:58;;;;;;;6.32;3.95;;;;;;;7.85;64.43;101269.09;1035393;28;20659;-81
2023/04/28 00:33:29;;;;;;;5.13;4.60;;;;;;;7.88;65.10;101277.47;1035571;28;20311;-81
2023/04/28 00:34:01;;;;;;;4.53;3.72;;;;;;;7.87;64.74;101275.84;1032485;28;20297;-81
2023/04/28 00:34:33;;;;;;;4.78;4.07;;;;;;;7.89;65.03;101273.00;1031629;28;20382;-81
2023/04/28 00:35:05;;;;;;;4.10;3.70;;;;;;;7.92;65.64;101272.63;1031384;28;20305;-81
2023/04/28 00:35:37;;;;;;;5.93;4.28;;;;;;;7.90;65.42;101272.81;1033615;28;20699;-81
2023/04/28 00:36:10;;;;;;;5.50;3.58;;;;;;;7.95;64.93;101272.28;1038569;28;20308;-81
2023/04/28 00:36:41;;;;;;;4.47;3.47;;;;;;;7.93;64.95;101268.97;1036502;28;20300;-81
2023/04/28 00:37:13;;;;;;;6.63;3.97;;;;;;;7.88;64.87;101268.72;1039704;28;20423;-81
2023/04/28 00:37:45;;;;;;;7.53;4.60;;;;;;;7.89;65.09;101273.00;1036873;28;20305;-81
2023/04/28 00:38:16;;;;;;;5.55;4.63;;;;;;;7.88;64.92;101271.34;1042920;28;20306;-81
2023/04/28 00:38:48;;;;;;;4.25;3.50;;;;;;;7.85;65.04;101263.78;1043507;28;20291;-81
2023/04/28 00:39:21;;;;;;;7.40;5.03;;;;;;;7.84;65.71;101270.09;1040547;28;20307;-81
2023/04/28 00:39:56;;;;;;;6.93;4.10;;;;;;;7.82;66.14;101264.97;1042845;28;20292;-81
2023/04/28 00:40:35;;;;;;;5.07;4.38;;;;;;;7.79;65.28;101256.59;1043845;28;20299;-81
2023/04/28 00:41:09;;;;;;;4.55;4.15;;;;;;;7.72;66.21;101252.03;1043658;28;20307;-82
2023/04/28 00:41:40;;;;;;;5.05;4.00;;;;;;;7.71;65.73;101250.41;1041912;28;20302;-81
2023/04/28 00:42:15;;;;;;;4.78;3.83;;;;;;;7.71;65.95;101250.41;1039565;28;20304;-81
2023/04/28 00:42:47;;;;;;;4.13;3.72;;;;;;;7.70;66.31;101255.88;1037768;28;21013;-81
2023/04/28 00:43:19;;;;;;;5.00;4.20;;;;;;;7.64;66.39;101246.81;1035603;28;20692;-82
2023/04/28 00:43:51;;;;;;;5.45;3.78;;;;;;;7.61;66.52;101246.38;1035620;28;20324;-81
2023/04/28 00:44:22;;;;;;;6.07;3.35;;;;;;;7.62;66.43;101246.19;1029326;28;20301;-82
2023/04/28 00:44:54;;;;;;;7.70;4.03;;;;;;;7.66;66.58;101255.41;1029092;28;20384;-81
2023/04/28 00:45:25;;;;;;;6.63;3.85;;;;;;;7.69;66.73;101254.25;1034185;28;20348;-81
2023/04/28 00:45:57;;;;;;;4.80;3.42;;;;;;;7.70;66.35;101245.28;1031463;28;20305;-81
2023/04/28 00:46:31;;;;;;;4.22;3.70;;;;;;;7.71;66.52;101244.28;1033770;28;20320;-81
2023/04/28 00:47:03;;;;;;;7.55;4.55;;;;;;;7.73;65.98;101244.91;1034947;28;20309;-81
2023/04/28 00:47:36;;;;;;;7.55;4.18;;;;;;;7.65;65.60;101235.22;1034819;28;20343;-81
2023/04/28 00:48:07;;;;;;;6.00;4.20;;;;;;;7.69;65.81;101241.81;1036321;28;20888;-81
2023/04/28 00:48:39;;;;;;;5.53;4.22;;;;;;;7.72;66.42;101245.91;1035025;28;20307;-82
2023/04/28 00:49:11;;;;;;;6.80;4.15;;;;;;;7.72;66.17;101233.47;1031968;28;20304;-81
2023/04/28 00:49:42;;;;;;;9.63;5.00;;;;;;;7.76;66.07;101239.22;1031975;28;20301;-81
2023/04/28 00:50:15;;;;;;;7.10;4.00;;;;;;;7.80;66.30;101237.00;1035719;28;20300;-81
2023/04/28 00:50:47;;;;;;;5.80;3.70;;;;;;;7.79;66.47;101235.38;1032548;28;20667;-81
2023/04/28 00:51:19;;;;;;;5.53;4.18;;;;;;;7.74;67.00;101234.09;1031840;28;20308;-81
2023/04/28 00:51:51;;;;;;;6.68;3.75;;;;;;;7.71;65.63;101226.53;1035334;28;20348;-82
2023/04/28 00:52:23;;;;;;;6.80;4.40;;;;;;;7.71;65.42;101223.06;1035776;28;20305;-81
2023/04/28 00:52:54;;;;;;;4.90;3.72;;;;;;;7.70;65.90;101219.59;1040712;28;20306;-81
2023/04/28 00:53:26;;;;;;;4.65;4.05;;;;;;;7.77;66.25;101229.44;1036032;28;20296;-81
2023/04/28 00:53:58;;;;;;;4.82;3.80;;;;;;;7.78;66.32;101228.44;1039619;28;21045;-81
2023/04/28 00:54:32;;;;;;;7.57;4.22;;;;;;;7.79;66.41;101227.41;1037282;28;20307;-81
2023/04/28 00:55:04;;;;;;;4.97;4.03;;;;;;;7.81;66.62;101223.56;1029722;28;20306;-81
2023/04/28 00:55:37;;;;;;;5.35;3.55;;;;;;;7.81;66.21;101223.56;1031725;28;20408;-81
2023/04/28 00:56:08;;;;;;;4.63;3.97;;;;;;;7.78;65.62;101228.44;1034115;28;20284;-81
2023/04/28 00:56:41;;;;;;;6.25;4.55;;;;;;;7.85;65.89;101224.00;1031933;28;20306;-81
2023/04/28 00:57:12;;;;;;;6.40;3.92;;;;;;;7.86;65.79;101230.94;1035759;28;20817;-81
2023/04/28 00:57:44;;;;;;;5.88;3.92;;;;;;;7.83;65.32;101221.53;1034727;28;20293;-81
2023/04/28 00:58:17;;;;;;;5.47;3.97;;;;;;;7.85;65.97;101227.47;1036080;28;20331;-81
2023/04/28 00:58:49;;;;;;;9.63;4.88;;;;;;;7.80;65.56;101229.06;1035448;28;20386;-81
2023/04/28 00:59:20;;;;;;;5.80;4.30;;;;;;;7.77;65.86;101226.78;1038774;28;20314;-82
2023/04/28 00:59:52;;;;;;;7.22;4.03;;;;;;;7.75;66.13;101227.78;1043952;28;20295;-81
2023/04/28 01:00:24;;;;;;;5.32;4.47;;;;;;;7.76;65.73;101225.97;1039806;28;20661;-81
2023/04/28 01:01:07;;;;;;;4.40;3.60;;;;;;;7.74;65.54;101218.19;1043407;28;22328;-82
2023/04/28 01:01:39;;;;;;;4.63;4.18;;;;;;;7.78;64.71;101215.16;1039977;28;20311;-81
2023/04/28 01:02:16;;;;;;;4.18;3.78;;;;;;;7.81;65.15;101217.44;1045412;28;20330;-81
2023/04/28 01:02:50;;;;;;;5.10;3.88;;;;;;;7.80;65.79;101221.09;1046053;28;20372;-81
2023/04/28 01:03:22;;;;;;;4.45;3.75;;;;;;;7.81;65.35;101217.44;1043811;28;20761;-81
2023/04/28 01:03:54;;;;;;;5.20;3.95;;;;;;;7.79;64.93;101214.16;1039154;28;20837;-81
2023/04/28 01:04:28;;;;;;;5.55;4.00;;;;;;;7.84;66.45;101227.66;1034761;28;20327;-81
2023/04/28 01:05:01;;;;;;;4.35;3.85;;;;;;;7.82;65.42;101216.44;1029929;28;20822;-81
2023/04/28 01:05:33;;;;;;;5.90;4.40;;;;;;;7.81;65.09;101215.59;1034906;28;20312;-81
2023/04/28 01:06:07;;;;;;;7.03;4.22;;;;;;;7.80;66.45;101221.09;1035460;28;20701;-81
2023/04/28 01:06:40;;;;;;;4.22;3.75;;;;;;;7.80;65.50;101218.44;1031713;28;20340;-81
2023/04/28 01:07:12;;;;;;;6.70;4.38;;;;;;;7.78;65.56;101213.34;1030417;28;20304;-82
2023/04/28 01:07:44;;;;;;;4.63;3.75;;;;;;;7.78;65.13;101215.16;1027451;28;20310;-81
2023/04/28 01:08:15;;;;;;;6.80;4.30;;;;;;;7.81;65.34;101222.75;1031653;28;20344;-81
2023/04/28 01:08:49;;;;;;;4.03;3.65;;;;;;;7.80;65.67;101216.63;1035286;28;20340;-81
2023/04/28 01:09:21;;;;;;;8.13;3.92;;;;;;;7.83;65.05;101215.41;1035328;28;20686;-81
2023/04/28 01:09:55;;;;;;;6.47;3.95;;;;;;;7.79;65.85;101224.75;1034387;28;20403;-81
2023/04/28 01:10:32;;;;;;;5.38;4.18;;;;;;;7.80;66.11;101221.09;1035038;28;20374;-80
2023/04/28 01:11:12;;;;;;;5.05;4.40;;;;;;;7.82;66.38;101219.06;1026183;28;20302;-81
2023/04/28 01:12:00;;;;;;;4.55;3.85;;;;;;;7.85;65.75;101216.03;1038025;28;20301;-80
2023/04/28 01:12:52;;;;;;;3.90;3.22;;;;;;;7.78;65.39;101213.34;1039814;28;20391;-81
2023/04/28 01:13:24;;;;;;;10.75;4.22;;;;;;;7.82;65.59;101217.25;1035666;28;20315;-81
2023/04/28 01:13:58;;;;;;;9.10;3.85;;;;;;;7.82;64.90;101213.78;1035166;28;20315;-81
2023/04/28 01:14:32;;;;;;;4.40;4.00;;;;;;;7.82;65.78;101213.78;1037510;28;20698;-81
2023/04/28 01:15:05;;;;;;;4.63;4.10;;;;;;;7.83;66.82;101212.75;1031238;28;20300;-81
2023/04/28 01:15:36;;;;;;;6.50;3.80;;;;;;;7.85;66.66;101214.22;1030046;28;20679;-81
2023/04/28 01:16:08;;;;;;;6.25;4.05;;;;;;;7.84;65.83;101214.41;1035303;28;20296;-81
2023/04/28 01:16:40;;;;;;;6.28;4.32;;;;;;;7.77;65.84;101211.69;1031708;28;20381;-82
2023/04/28 01:17:12;;;;;;;8.63;4.47;;;;;;;7.72;65.42;101204.31;1031592;28;20298;-81
2023/04/28 01:17:45;;;;;;;7.07;4.32;;;;;;;7.80;65.98;101205.19;1031800;28;20845;-81
2023/04/28 01:18:17;;;;;;;6.85;4.18;;;;;;;7.79;65.70;101208.84;1037000;28;20304;-81
2023/04/28 01:18:49;;;;;;;5.50;3.70;;;;;;;7.78;66.42;101207.22;1032430;28;20309;-81
2023/04/28 01:19:21;;;;;;;4.35;3.67;;;;;;;7.77;66.13;101210.88;1035112;28;20300;-82
2023/04/28 01:19:54;;;;;;;5.63;4.03;;;;;;;7.77;66.36;101210.88;1028945;28;20302;-81
2023/04/28 01:20:26;;;;;;;4.60;4.07;;;;;;;7.79;66.52;101207.03;1031471;28;20317;-81
2023/04/28 01:20:58;;;;;;;5.45;4.15;;;;;;;7.79;66.70;101208.84;1035172;28;20308;-81
2023/04/28 01:21:31;;;;;;;8.63;4.78;;;;;;;7.77;66.82;101210.88;1031764;28;20645;-81
2023/04/28 01:22:10;;;;;;;5.47;3.85;;;;;;;7.72;66.94;101204.31;1042425;28;20308;-82
2023/04/28 01:22:42;;;;;;;4.50;3.97;;;;;;;7.71;66.44;101197.38;1040501;28;20315;-82
2023/04/28 01:23:15;;;;;;;9.27;4.45;;;;;;;7.74;66.25;101196.97;1035185;28;20309;-81
2023/04/28 01:23:47;;;;;;;7.10;4.00;;;;;;;7.69;66.06;101195.91;1029219;28;20325;-81
2023/04/28 01:24:18;;;;;;;5.57;3.78;;;;;;;7.69;66.63;101199.38;1034932;28;20312;-81
2023/04/28 01:24:50;;;;;;;11.55;4.57;;;;;;;7.73;65.79;101192.69;1039030;28;20311;-81
2023/04/28 01:25:22;;;;;;;7.28;3.65;;;;;;;7.75;65.82;101193.31;1039258;28;20332;-81
2023/04/28 01:25:53;;;;;;;6.63;4.10;;;;;;;7.70;66.77;101195.72;1039071;28;20300;-81
2023/04/28 01:26:25;;;;;;;5.13;4.60;;;;;;;7.73;66.64;101194.53;1038922;28;20824;-81
2023/04/28 01:26:57;;;;;;;4.38;3.50;;;;;;;7.73;66.56;101199.81;1037891;28;20397;-81
2023/04/28 01:27:29;;;;;;;6.53;3.95;;;;;;;7.69;67.01;101188.78;1030605;28;20301;-81
2023/04/28 01:28:00;;;;;;;7.63;3.90;;;;;;;7.67;66.21;101196.09;1027938;28;20729;-81
2023/04/28 01:28:32;;;;;;;8.93;4.82;;;;;;;7.68;66.30;101191.63;1031610;28;20305;-81
2023/04/28 01:29:03;;;;;;;4.70;4.30;;;;;;;7.66;66.74;101194.44;1028387;28;20330;-81
2023/04/28 01:29:35;;;;;;;3.92;3.63;;;;;;;7.68;66.44;101192.44;1033778;28;20388;-81
2023/04/28 01:30:07;;;;;;;8.35;4.25;;;;;;;7.61;66.99;101199.47;1026459;28;20771;-81
2023/04/28 01:30:39;;;;;;;6.05;4.32;;;;;;;7.64;67.25;101199.09;1032344;28;20392;-81
2023/04/28 01:31:11;;;;;;;9.75;4.63;;;;;;;7.67;66.81;101193.44;1039163;28;20685;-81
2023/04/28 01:31:42;;;;;;;5.25;4.30;;;;;;;7.60;67.27;101205.78;1033048;28;20735;-81
2023/04/28 01:32:14;;;;;;;6.78;4.47;;;;;;;7.66;67.15;101196.25;1031689;28;20305;-81
2023/04/28 01:32:46;;;;;;;4.15;3.75;;;;;;;7.60;66.59;101200.50;1033837;28;20309;-81
2023/04/28 01:33:17;;;;;;;5.82;4.13;;;;;;;7.64;66.87;101200.94;1035441;28;20706;-81
2023/04/28 01:33:49;;;;;;;4.55;3.78;;;;;;;7.68;66.52;101196.94;1031793;28;20305;-81
2023/04/28 01:34:21;;;;;;;5.03;4.10;;;;;;;7.74;66.89;101199.63;1035200;28;20301;-81
2023/04/28 01:34:53;;;;;;;4.47;3.92;;;;;;;7.78;66.53;101192.13;1028249;28;20344;-81
2023/04/28 01:35:25;;;;;;;6.65;4.40;;;;;;;7.80;66.69;101199.88;1038063;28;20351;-81
2023/04/28 01:35:57;;;;;;;4.82;4.05;;;;;;;7.79;67.79;101203.53;1033951;28;21605;-81
2023/04/28 01:36:29;;;;;;;6.07;4.35;;;;;;;7.71;67.07;101201.84;1037853;28;20312;-81
2023/04/28 01:37:01;;;;;;;6.25;4.22;;;;;;;7.69;67.24;101199.38;1043826;28;20311;-81
2023/04/28 01:37:32;;;;;;;8.60;3.83;;;;;;;7.65;66.03;101191.97;1041192;28;20436;-81
2023/04/28 01:38:04;;;;;;;5.53;3.85;;;;;;;7.74;66.70;101196.97;1037308;28;20288;-81
2023/04/28 01:38:36;;;;;;;6.53;4.45;;;;;;;7.76;66.97;101194.13;1038737;28;20817;-81
2023/04/28 01:39:07;;;;;;;6.88;4.70;;;;;;;7.74;66.76;101186.38;1031857;28;20385;-82
2023/04/28 01:39:39;;;;;;;5.15;4.35;;;;;;;7.72;66.98;101199.00;1024684;28;20891;-80
2023/04/28 01:40:11;;;;;;;6.32;4.38;;;;;;;7.65;66.45;101195.44;1031086;28;20305;-81
2023/04/28 01:40:43;;;;;;;7.88;4.22;;;;;;;7.70;66.77;101193.06;1044005;28;20299;-81
2023/04/28 01:41:15;;;;;;;5.05;4.20;;;;;;;7.71;66.09;101191.25;1044201;28;20292;-81
2023/04/28 01:41:46;;;;;;;6.75;3.70;;;;;;;7.74;66.17;101194.34;1036092;28;20305;-81
2023/04/28 01:42:18;;;;;;;4.45;4.05;;;;;;;7.69;66.79;101194.09;1035103;28;20656;-81
2023/04/28 01:42:50;;;;;;;5.72;3.78;;;;;;;7.67;66.87;101188.16;1033032;28;20313;-81
2023/04/28 01:43:21;;;;;;;6.60;3.67;;;;;;;7.67;66.88;101193.44;1039670;28;20295;-81
2023/04/28 01:43:53;;;;;;;5.82;4.25;;;;;;;7.70;67.39;101190.41;1039986;28;20307;-81
2023/04/28 01:44:24;;;;;;;9.73;4.30;;;;;;;7.71;67.60;101192.06;1037798;28;20299;-81
2023/04/28 01:44:57;;;;;;;4.80;4.10;;;;;;;7.68;67.86;101189.78;1032026;28;20320;-81
2023/04/28 01:45:28;;;;;;;4.75;4.13;;;;;;;7.64;68.13;101193.81;1035912;28;20305;-81
2023/04/28 01:46:00;;;;;;;7.63;4.95;;;;;;;7.67;68.36;101189.94;1038436;28;20300;-81
2023/04/28 01:46:32;;;;;;;4.03;3.63;;;;;;;7.64;67.90;101190.31;1031461;28;20837;-81
2023/04/28 01:47:04;;;;;;;5.50;4.30;;;;;;;7.65;67.55;101192.78;1031711;28;20521;-81
2023/04/28 01:47:38;;;;;;;5.28;4.13;;;;;;;7.68;67.87;101187.13;1036958;28;20793;-81
2023/04/28 01:48:10;;;;;;;5.38;3.65;;;;;;;7.68;68.49;101192.44;1032801;28;20312;-81
2023/04/28 01:48:42;;;;;;;5.45;4.50;;;;;;;7.69;68.86;101193.25;1038543;28;20297;-81
2023/04/28 01:49:13;;;;;;;6.85;3.95;;;;;;;7.72;68.25;101188.41;1043674;28;20287;-81
2023/04/28 01:49:47;;;;;;;10.77;4.07;;;;;;;7.70;68.58;101194.91;1037432;28;20301;-81
2023/04/28 01:50:18;;;;;;;4.53;3.83;;;;;;;7.67;68.97;101190.81;1040578;28;20393;-81
2023/04/28 01:50:50;;;;;;;5.30;4.40;;;;;;;7.69;67.48;101194.09;1041740;28;20310;-81
2023/04/28 01:51:21;;;;;;;6.50;4.28;;;;;;;7.69;68.31;101187.97;1035536;28;20300;-81
2023/04/28 01:51:53;;;;;;;4.95;4.45;;;;;;;7.67;68.75;101190.81;1037983;28;20327;-81
2023/04/28 01:52:26;;;;;;;7.22;4.93;;;;;;;7.69;68.10;101193.25;1041358;28;20828;-81
2023/04/28 01:52:58;;;;;;;6.63;4.18;;;;;;;7.67;67.76;101185.50;1033785;28;20390;-81
2023/04/28 01:53:30;;;;;;;7.70;4.30;;;;;;;7.69;68.22;101188.78;1041791;28;21002;-81
2023/04/28 01:54:02;;;;;;;7.55;4.88;;;;;;;7.71;68.61;101192.06;1040130;28;20314;-81
2023/04/28 01:54:34;;;;;;;5.10;4.60;;;;;;;7.68;68.21;101188.97;1038854;28;20303;-81
2023/04/28 01:55:06;;;;;;;9.43;5.50;;;;;;;7.70;68.59;101192.25;1029257;28;20310;-81
2023/04/28 01:55:37;;;;;;;7.75;4.45;;;;;;;7.65;68.07;101190.13;1030150;28;20396;-81
2023/04/28 01:56:09;;;;;;;7.05;3.88;;;;;;;7.66;68.21;101190.97;1038855;28;20335;-81
2023/04/28 01:56:41;;;;;;;6.35;4.05;;;;;;;7.65;67.48;101187.50;1040354;28;20350;-81
2023/04/28 01:57:15;;;;;;;7.13;4.97;;;;;;;7.48;68.92;101194.06;1042133;28;20377;-82
2023/04/28 01:57:48;;;;;;;6.57;4.30;;;;;;;7.63;68.70;101189.50;1039539;28;20304;-81
2023/04/28 01:58:21;;;;;;;6.90;4.70;;;;;;;7.67;68.56;101193.44;1039495;28;20363;-81
2023/04/28 01:58:53;;;;;;;6.10;3.72;;;;;;;7.70;68.26;101185.13;1031315;28;20301;-81
2023/04/28 01:59:25;;;;;;;10.00;4.70;;;;;;;7.74;68.11;101196.97;1030283;28;20298;-81
2023/04/28 01:59:58;;;;;;;4.78;3.92;;;;;;;7.71;67.97;101192.06;1035350;28;20450;-81
2023/04/28 02:00:30;;;;;;;4.35;3.90;;;;;;;7.67;67.91;101190.81;1031644;28;20301;-82
2023/04/28 02:01:02;;;;;;;11.20;5.68;;;;;;;7.70;67.77;101200.22;1031828;28;20324;-81
2023/04/28 02:01:34;;;;;;;7.70;3.95;;;;;;;7.71;67.33;101192.06;1035208;28;20660;-81
2023/04/28 02:02:05;;;;;;;5.53;4.28;;;;;;;7.59;67.46;101193.53;1032517;28;20304;-81
2023/04/28 02:02:37;;;;;;;5.60;5.00;;;;;;;7.69;67.22;101201.22;1033383;28;20305;-81
2023/04/28 02:03:09;;;;;;;10.82;4.38;;;;;;;7.72;68.20;101199.00;1044795;28;20742;-81
2023/04/28 02:03:41;;;;;;;4.78;4.05;;;;;;;7.73;67.11;101195.34;1039510;28;20311;-81
2023/04/28 02:04:12;;;;;;;5.63;3.55;;;;;;;7.75;67.47;101193.31;1041983;28;20302;-81
2023/04/28 02:04:45;;;;;;;8.80;4.57;;;;;;;7.75;68.23;101190.66;1040178;28;20379;-81
2023/04/28 02:05:16;;;;;;;4.75;4.28;;;;;;;7.72;69.31;101192.88;1043268;28;20300;-81
2023/04/28 02:05:51;;;;;;;6.18;4.05;;;;;;;7.71;68.75;101192.06;1039445;28;20402;-81
2023/04/28 02:06:22;;;;;;;6.00;4.18;;;;;;;7.72;68.17;101193.69;1037435;28;20304;-81
2023/04/28 02:06:54;;;;;;;7.47;4.18;;;;;;;7.76;67.97;101194.13;1042744;28;20291;-81
2023/04/28 02:07:26;;;;;;;5.40;4.90;;;;;;;7.73;68.50;101190.03;1041983;28;20665;-81
2023/04/28 02:07:57;;;;;;;6.78;4.32;;;;;;;7.74;68.43;101186.38;1041048;28;20300;-82
2023/04/28 02:08:29;;;;;;;5.75;4.55;;;;;;;7.69;68.96;101188.78;1038645;28;20311;-81
2023/04/28 02:09:00;;;;;;;10.38;4.65;;;;;;;7.71;68.41;101186.75;1031362;28;20305;-81
2023/04/28 02:09:32;;;;;;;4.80;4.35;;;;;;;7.78;67.71;101186.81;1032519;28;20301;-81
2023/04/28 02:10:04;;;;;;;5.68;4.55;;;;;;;7.80;68.39;101186.63;1031781;28;20311;-81
2023/04/28 02:10:36;;;;;;;5.32;4.82;;;;;;;7.81;68.45;101190.91;1033559;28;20334;-81
2023/04/28 02:11:08;;;;;;;8.27;5.25;;;;;;;7.71;68.91;101180.63;1030602;28;20309;-81
2023/04/28 02:11:40;;;;;;;3.92;3.60;;;;;;;7.67;69.32;101185.50;1031035;28;20305;-81
2023/04/28 02:12:11;;;;;;;5.70;3.50;;;;;;;7.69;68.13;101183.47;1033821;28;20308;-82
2023/04/28 02:12:43;;;;;;;5.72;5.05;;;;;;;7.69;67.43;101188.78;1031450;28;20301;-81
2023/04/28 02:13:16;;;;;;;5.60;4.30;;;;;;;7.87;68.21;101180.38;1038428;28;20300;-81
2023/04/28 02:13:47;;;;;;;8.40;4.65;;;;;;;7.89;68.64;101183.66;1038751;28;20308;-81
2023/04/28 02:14:19;;;;;;;4.88;4.43;;;;;;;7.88;68.96;101189.97;1036094;28;20309;-81
2023/04/28 02:14:50;;;;;;;6.72;4.22;;;;;;;7.84;68.04;101190.53;1031806;28;20302;-81
2023/04/28 02:15:22;;;;;;;5.70;4.30;;;;;;;7.82;67.87;101187.25;1037581;28;20297;-81
2023/04/28 02:15:53;;;;;;;7.97;5.07;;;;;;;7.84;67.12;101185.22;1035048;28;20315;-81
2023/04/28 02:16:25;;;;;;;6.63;4.45;;;;;;;7.84;68.03;101185.22;1034193;28;20383;-81
2023/04/28 02:16:58;;;;;;;9.43;4.65;;;;;;;7.86;68.22;101180.56;1027446;28;20308;-81
2023/04/28 02:17:30;;;;;;;5.40;4.35;;;;;;;7.90;68.50;101190.59;1032356;28;20387;-81
2023/04/28 02:18:01;;;;;;;5.53;4.47;;;;;;;7.78;68.91;101186.00;1028830;28;20397;-81
2023/04/28 02:18:35;;;;;;;5.53;4.55;;;;;;;7.81;68.30;101180.31;1036109;28;20395;-81
2023/04/28 02:19:06;;;;;;;5.45;4.57;;;;;;;7.76;68.56;101183.53;1035637;28;20893;-81
2023/04/28 02:19:38;;;;;;;8.80;4.63;;;;;;;7.80;67.69;101179.50;1040519;28;20308;-81
2023/04/28 02:20:10;;;;;;;5.75;4.35;;;;;;;7.71;67.68;101181.47;1044858;28;20294;-81
2023/04/28 02:20:42;;;;;;;6.90;4.53;;;;;;;7.58;68.01;101180.47;1047720;28;20301;-82
2023/04/28 02:21:13;;;;;;;6.05;4.53;;;;;;;7.52;68.15;101176.75;1042183;28;20322;-81
2023/04/28 02:21:45;;;;;;;4.60;3.97;;;;;;;7.48;68.25;101178.16;1035134;28;20310;-81
2023/04/28 02:22:17;;;;;;;5.07;4.20;;;;;;;7.48;67.94;101175.50;1032244;28;20305;-81
2023/04/28 02:22:49;;;;;;;5.90;4.70;;;;;;;7.60;68.66;101175.81;1033683;28;20311;-81
2023/04/28 02:23:20;;;;;;;6.20;4.53;;;;;;;7.65;69.66;101184.00;1035272;28;20301;-81
2023/04/28 02:23:52;;;;;;;5.13;4.68;;;;;;;7.65;70.00;101178.72;1037974;28;20301;-81
2023/04/28 02:24:24;;;;;;;5.43;4.40;;;;;;;7.73;68.90;101179.44;1035781;28;20297;-81
2023/04/28 02:24:56;;;;;;;9.02;4.53;;;;;;;7.75;69.27;101179.25;1039630;28;20318;-82
2023/04/28 02:25:27;;;;;;;4.10;3.72;;;;;;;7.72;69.01;101183.09;1041418;28;20639;-81
2023/04/28 02:26:00;;;;;;;5.05;3.97;;;;;;;7.93;68.86;101174.28;1044171;28;20295;-81
2023/04/28 02:26:32;;;;;;;4.55;4.15;;;;;;;8.00;68.75;101169.06;1043985;28;20307;-81
2023/04/28 02:27:04;;;;;;;7.20;4.88;;;;;;;7.94;68.10;101169.81;1044920;28;20295;-81
2023/04/28 02:27:37;;;;;;;7.10;4.80;;;;;;;8.00;67.50;101169.06;1038501;28;20383;-81
2023/04/28 02:28:08;;;;;;;5.25;4.40;;;;;;;8.00;67.66;101169.06;1036654;28;20305;-81
2023/04/28 02:28:40;;;;;;;4.05;3.60;;;;;;;8.01;67.15;101170.72;1039890;28;20299;-81
2023/04/28 02:29:12;;;;;;;7.55;4.07;;;;;;;7.94;67.54;101169.81;1042029;28;20300;-82
2023/04/28 02:29:43;;;;;;;6.13;4.72;;;;;;;7.92;67.70;101169.19;1045396;28;20303;-81
2023/04/28 02:30:15;;;;;;;6.53;4.47;;;;;;;8.02;67.90;101167.03;1044426;28;20804;-81
2023/04/28 02:30:47;;;;;;;8.07;4.10;;;;;;;8.05;67.34;101171.97;1047126;28;20428;-81
2023/04/28 02:31:18;;;;;;;6.32;3.85;;;;;;;7.94;67.18;101159.19;1047184;28;20298;-81
2023/04/28 02:31:50;;;;;;;7.95;3.85;;;;;;;7.95;66.72;101160.88;1048647;28;20855;-82